createdAt,value
2023-03-25T00:01:37.811Z,-11063.72
2023-03-25T00:04:45.322Z,-11076.22
2023-03-25T00:07:53.933Z,-11068.34
2023-03-25T00:11:03.411Z,-11066.25
2023-03-25T00:14:12.326Z,-11046.47
2023-03-25T00:17:20.612Z,-11042.81
2023-03-25T00:20:28.149Z,-11043.38
2023-03-25T00:23:34.106Z,-11042.25
2023-03-25T00:26:42.732Z,-11048.44
2023-03-25T00:29:48.701Z,-11062.19
2023-03-25T00:32:54.890Z,-11054.88
2023-03-25T00:36:05.564Z,-11065.84
2023-03-25T00:39:11.931Z,-11068.50
2023-03-25T00:42:26.212Z,-11070.03
2023-03-25T00:45:33.000Z,-11072.16
2023-03-25T00:48:39.422Z,-11072.72
2023-03-25T00:51:53.018Z,-11070.03
2023-03-25T00:54:59.996Z,-11071.16
2023-03-25T00:58:06.550Z,-11065.84
2023-03-25T01:01:14.442Z,-11047.31
2023-03-25T01:04:20.704Z,-11055.59
2023-03-25T01:07:29.497Z,-11054.03
2023-03-25T01:10:36.871Z,-11019.53
2023-03-25T01:13:42.797Z,-11020.66
2023-03-25T01:16:49.046Z,-11035.94
2023-03-25T01:19:55.238Z,-11049.84
2023-03-25T01:23:02.604Z,-11048.16
2023-03-25T01:26:09.322Z,-11043.38
2023-03-25T01:29:17.337Z,-11047.88
2023-03-25T01:32:23.588Z,-11044.38
2023-03-25T01:35:29.603Z,-11037.50
2023-03-25T01:38:37.241Z,-11029.22
2023-03-25T01:41:49.729Z,-11026.13
2023-03-25T01:45:18.019Z,-11033.84
2023-03-25T01:48:28.657Z,-11040.44
2023-03-25T01:51:40.507Z,-11027.94
2023-03-25T01:54:52.159Z,-11039.44
2023-03-25T01:58:01.634Z,-11020.78
2023-03-25T02:01:11.608Z,-11016.31
2023-03-25T02:04:27.418Z,-11029.50
2023-03-25T02:07:36.821Z,-11020.50
2023-03-25T02:10:47.289Z,-11010.00
2023-03-25T02:13:53.624Z,-11027.37
2023-03-25T02:17:09.448Z,-11026.81
2023-03-25T02:20:48.919Z,-11026.53
2023-03-25T02:24:35.534Z,-11029.34
2023-03-25T02:28:03.226Z,-11029.91
2023-03-25T02:31:45.472Z,-11035.66
2023-03-25T02:35:11.929Z,-11034.69
2023-03-25T02:38:36.872Z,-11043.38
2023-03-25T02:41:52.350Z,-11035.81
2023-03-25T02:45:03.478Z,-11028.78
2023-03-25T02:48:17.241Z,-11015.31
2023-03-25T02:51:29.631Z,-11013.38
2023-03-25T02:54:39.420Z,-11018.13
2023-03-25T02:57:47.851Z,-11007.75
2023-03-25T03:00:59.223Z,-10999.06
2023-03-25T03:04:05.997Z,-11000.31
2023-03-25T03:07:14.278Z,-11027.53
2023-03-25T03:10:27.324Z,-11028.78
2023-03-25T03:13:43.769Z,-11022.62
2023-03-25T03:17:00.767Z,-11016.72
2023-03-25T03:20:19.350Z,-11014.34
2023-03-25T03:23:29.266Z,-11033.97
2023-03-25T03:26:41.910Z,-11031.31
2023-03-25T03:29:51.178Z,-11035.09
2023-03-25T03:33:09.978Z,-11037.22
2023-03-25T03:36:19.079Z,-11010.84
2023-03-25T03:39:29.073Z,-11012.81
2023-03-25T03:42:41.888Z,-11020.50
2023-03-25T03:45:51.661Z,-10996.81
2023-03-25T03:49:01.171Z,-10993.59
2023-03-25T03:52:12.764Z,-10988.97
2023-03-25T03:55:24.962Z,-10989.53
2023-03-25T03:58:37.066Z,-11000.19
2023-03-25T04:01:47.070Z,-11012.81
2023-03-25T04:04:53.959Z,-11019.94
2023-03-25T04:08:03.953Z,-11027.53
2023-03-25T04:11:13.557Z,-11028.38
2023-03-25T04:14:21.886Z,-11029.91
2023-03-25T04:17:30.324Z,-11029.06
2023-03-25T04:20:37.243Z,-11016.16
2023-03-25T04:23:43.317Z,-11003.25
2023-03-25T04:26:50.038Z,-11018.97
2023-03-25T04:29:58.345Z,-11031.59
2023-03-25T04:33:04.755Z,-11026.81
2023-03-25T04:36:12.071Z,-11009.44
2023-03-25T04:39:22.550Z,-10983.63
2023-03-25T04:42:32.891Z,-10988.13
2023-03-25T04:45:42.908Z,-11013.66
2023-03-25T04:48:49.005Z,-11021.50
2023-03-25T04:51:57.100Z,-11007.75
2023-03-25T04:55:05.387Z,-11006.06
2023-03-25T04:58:11.485Z,-11021.22
2023-03-25T05:01:24.292Z,-11032.84
2023-03-25T05:04:30.500Z,-11060.34
2023-03-25T05:07:36.708Z,-11051.94
2023-03-25T05:10:43.387Z,-11057.28
2023-03-25T05:13:49.522Z,-11042.69
2023-03-25T05:16:59.396Z,-11053.19
2023-03-25T05:20:08.491Z,-11058.53
2023-03-25T05:23:18.017Z,-11053.75
2023-03-25T05:26:25.052Z,-11028.78
2023-03-25T05:29:34.138Z,-11030.75
2023-03-25T05:32:42.308Z,-11046.19
2023-03-25T05:35:49.580Z,-11075.81
2023-03-25T05:38:56.996Z,-11070.31
2023-03-25T05:42:03.513Z,-11081.28
2023-03-25T05:45:11.844Z,-11094.75
2023-03-25T05:48:19.509Z,-11104.88
2023-03-25T05:51:26.981Z,-11103.75
2023-03-25T05:54:33.455Z,-11109.22
2023-03-25T05:57:39.835Z,-11109.34
2023-03-25T06:00:47.247Z,-11119.31
2023-03-25T06:03:55.668Z,-11128.59
2023-03-25T06:07:01.834Z,-11145.31
2023-03-25T06:10:08.769Z,-11147.28
2023-03-25T06:13:15.205Z,-11148.13
2023-03-25T06:16:23.107Z,-11147.84
2023-03-25T06:19:30.917Z,-11164.44
2023-03-25T06:22:39.179Z,-11169.91
2023-03-25T06:25:46.159Z,-11174.13
2023-03-25T06:28:52.788Z,-11176.22
2023-03-25T06:31:58.977Z,-11178.75
2023-03-25T06:35:09.315Z,-11190.84
2023-03-25T06:38:15.570Z,-11199.28
2023-03-25T06:41:26.041Z,-11215.31
2023-03-25T06:44:33.788Z,-11212.94
2023-03-25T06:47:40.132Z,-11206.59
2023-03-25T06:50:47.839Z,-11209.97
2023-03-25T06:53:54.336Z,-11233.19
2023-03-25T06:57:00.594Z,-11240.50
2023-03-25T07:00:08.257Z,-11235.88
2023-03-25T07:03:14.441Z,-11228.97
2023-03-25T07:06:23.748Z,-11253.59
2023-03-25T07:09:29.918Z,-11241.47
2023-03-25T07:12:36.604Z,-11246.69
2023-03-25T07:15:42.931Z,-11252.19
2023-03-25T07:18:50.367Z,-11261.47
2023-03-25T07:21:58.106Z,-11265.97
2023-03-25T07:25:04.677Z,-11267.09
2023-03-25T07:28:10.732Z,-11270.75
2023-03-25T07:31:18.052Z,-11284.56
2023-03-25T07:34:25.007Z,-11286.78
2023-03-25T07:37:32.741Z,-11287.78
2023-03-25T07:40:39.347Z,-11289.34
2023-03-25T07:43:46.276Z,-11285.81
2023-03-25T07:46:52.435Z,-11291.03
2023-03-25T07:49:58.699Z,-11318.63
2023-03-25T07:53:06.602Z,-11329.31
2023-03-25T07:56:13.486Z,-11341.16
2023-03-25T07:59:19.951Z,-11318.06
2023-03-25T08:02:26.378Z,-11347.50
2023-03-25T08:05:32.988Z,-11341.72
2023-03-25T08:08:40.817Z,-11348.63
2023-03-25T08:11:48.650Z,-11359.87
2023-03-25T08:14:54.758Z,-11357.06
2023-03-25T08:18:01.906Z,-11361.84
2023-03-25T08:21:10.096Z,-11353.13
2023-03-25T08:24:17.557Z,-11369.03
2023-03-25T08:27:23.970Z,-11380.88
2023-03-25T08:30:30.125Z,-11400.03
2023-03-25T08:33:41.196Z,-11402.28
2023-03-25T08:36:47.676Z,-11411.31
2023-03-25T08:39:56.212Z,-11421.75
2023-03-25T08:43:05.338Z,-11419.22
2023-03-25T08:46:11.722Z,-11411.88
2023-03-25T08:49:18.220Z,-11437.25
2023-03-25T08:52:25.065Z,-11440.63
2023-03-25T08:55:32.609Z,-11447.81
2023-03-25T08:58:39.283Z,-11444.16
2023-03-25T09:01:46.019Z,-11442.06
2023-03-25T09:04:52.472Z,-11444.31
2023-03-25T09:07:59.000Z,-11424.84
2023-03-25T09:11:07.275Z,-11433.03
2023-03-25T09:14:13.349Z,-11448.94
2023-03-25T09:17:19.889Z,-11448.25
2023-03-25T09:20:26.621Z,-11478.44
2023-03-25T09:23:33.247Z,-11505.78
2023-03-25T09:26:41.046Z,-11497.47
2023-03-25T09:29:47.366Z,-11510.59
2023-03-25T09:32:53.468Z,-11482.66
2023-03-25T09:35:59.520Z,-11499.03
2023-03-25T09:39:05.776Z,-11483.78
2023-03-25T09:42:38.827Z,-11496.06
2023-03-25T09:45:47.330Z,-11509.59
2023-03-25T09:48:55.633Z,-11516.22
2023-03-25T09:52:02.528Z,-11510.31
2023-03-25T09:55:16.226Z,-11511.00
2023-03-25T09:58:33.359Z,-11502.13
2023-03-25T10:01:47.593Z,-11523.84
2023-03-25T10:05:14.550Z,-11509.47
2023-03-25T10:08:32.513Z,-11517.06
2023-03-25T10:11:45.409Z,-11548.41
2023-03-25T10:15:05.230Z,-11539.66
2023-03-25T10:18:32.653Z,-11535.13
2023-03-25T10:21:45.751Z,-11506.06
2023-03-25T10:24:56.140Z,-11529.34
2023-03-25T10:28:03.381Z,-11524.56
2023-03-25T10:31:17.727Z,-11537.69
2023-03-25T10:34:31.995Z,-11562.38
2023-03-25T10:37:42.133Z,-11550.94
2023-03-25T10:40:53.482Z,-11547.41
2023-03-25T10:43:59.602Z,-11554.47
2023-03-25T10:47:12.965Z,-11566.88
2023-03-25T10:50:21.877Z,-11562.78
2023-03-25T10:53:29.810Z,-11577.06
2023-03-25T10:56:41.529Z,-11561.38
2023-03-25T10:59:59.324Z,-11547.56
2023-03-25T11:03:11.306Z,-11573.94
2023-03-25T11:06:25.475Z,-11572.81
2023-03-25T11:09:32.922Z,-11557.44
2023-03-25T11:12:43.320Z,-11580.00
2023-03-25T11:15:50.946Z,-11558.28
2023-03-25T11:19:03.141Z,-11559.13
2023-03-25T11:22:13.976Z,-11584.94
2023-03-25T11:25:24.865Z,-11574.94
2023-03-25T11:28:40.246Z,-11576.19
2023-03-25T11:31:57.794Z,-11572.69
2023-03-25T11:35:17.576Z,-11557.84
2023-03-25T11:38:25.288Z,-11577.75
2023-03-25T11:41:38.154Z,-11577.75
2023-03-25T11:44:51.138Z,-11567.59
2023-03-25T11:48:01.558Z,-11577.47
2023-03-25T11:51:16.605Z,-11574.66
2023-03-25T11:54:23.213Z,-11582.84
2023-03-25T11:57:36.339Z,-11571.84
2023-03-25T12:00:47.885Z,-11586.09
2023-03-25T12:04:06.979Z,-11593.44
2023-03-25T12:07:21.697Z,-11580.00
2023-03-25T12:10:41.007Z,-11590.75
2023-03-25T12:14:09.217Z,-11588.78
2023-03-25T12:17:24.482Z,-11583.25
2023-03-25T12:20:38.573Z,-11565.91
2023-03-25T12:23:54.090Z,-11568.72
2023-03-25T12:27:15.387Z,-11571.28
2023-03-25T12:30:32.961Z,-11591.03
2023-03-25T12:33:52.048Z,-11591.31
2023-03-25T12:37:11.247Z,-11574.66
2023-03-25T12:40:41.907Z,-11584.09
2023-03-25T12:44:01.569Z,-11571.97
2023-03-25T12:47:20.541Z,-11556.88
2023-03-25T12:50:38.943Z,-11561.25
2023-03-25T12:53:59.952Z,-11566.47
2023-03-25T12:57:19.126Z,-11561.66
2023-03-25T13:00:42.012Z,-11569.84
2023-03-25T13:04:21.865Z,-11538.09
2023-03-25T13:07:33.394Z,-11537.41
2023-03-25T13:10:44.808Z,-11563.22
2023-03-25T13:13:57.320Z,-11546.44
2023-03-25T13:17:09.386Z,-11567.19
2023-03-25T13:20:18.145Z,-11577.75
2023-03-25T13:23:25.752Z,-11583.69
2023-03-25T13:26:33.671Z,-11563.34
2023-03-25T13:29:44.585Z,-11534.56
2023-03-25T13:32:55.710Z,-11529.22
2023-03-25T13:36:09.616Z,-11528.22
2023-03-25T13:39:20.526Z,-11522.44
2023-03-25T13:42:34.285Z,-11517.63
2023-03-25T13:45:49.015Z,-11512.28
2023-03-25T13:48:59.512Z,-11500.72
2023-03-25T13:52:07.860Z,-11497.88
2023-03-25T13:55:17.222Z,-11507.63
2023-03-25T13:58:43.313Z,-11506.62
2023-03-25T14:02:31.954Z,-11500.00
2023-03-25T14:05:56.391Z,-11489.72
2023-03-25T14:09:34.682Z,-11487.19
2023-03-25T14:12:45.662Z,-11485.91
2023-03-25T14:15:59.920Z,-11485.06
2023-03-25T14:19:12.733Z,-11486.59
2023-03-25T14:22:22.869Z,-11477.72
2023-03-25T14:25:34.778Z,-11483.38
2023-03-25T14:28:43.941Z,-11479.00
2023-03-25T14:32:26.207Z,-11471.66
2023-03-25T14:35:51.524Z,-11471.94
2023-03-25T14:38:59.646Z,-11468.84
2023-03-25T14:42:13.533Z,-11470.81
2023-03-25T14:45:42.979Z,-11466.72
2023-03-25T14:48:54.821Z,-11463.91
2023-03-25T14:52:02.927Z,-11457.84
2023-03-25T14:55:16.263Z,-11447.25
2023-03-25T14:58:26.362Z,-11447.25
2023-03-25T15:01:36.971Z,-11436.41
2023-03-25T15:04:44.395Z,-11419.91
2023-03-25T15:07:56.913Z,-11405.69
2023-03-25T15:11:10.608Z,-11396.81
2023-03-25T15:14:22.578Z,-11391.44
2023-03-25T15:17:44.941Z,-11383.13
2023-03-25T15:20:51.868Z,-11376.94
2023-03-25T15:24:05.855Z,-11378.06
2023-03-25T15:27:26.049Z,-11374.69
2023-03-25T15:30:59.401Z,-11370.88
2023-03-25T15:34:16.856Z,-11373.84
2023-03-25T15:37:47.253Z,-11371.16
2023-03-25T15:41:12.973Z,-11370.44
2023-03-25T15:45:02.012Z,-11369.75
2023-03-25T15:48:28.767Z,-11372.44
2023-03-25T15:51:57.824Z,-11376.66
2023-03-25T15:55:08.929Z,-11377.50
2023-03-25T15:58:25.113Z,-11373.28
2023-03-25T16:01:33.946Z,-11370.72
2023-03-25T16:04:44.252Z,-11369.75
2023-03-25T16:07:51.266Z,-11375.53
2023-03-25T16:10:57.722Z,-11372.44
2023-03-25T16:14:09.591Z,-11371.00
2023-03-25T16:17:17.163Z,-11367.63
2023-03-25T16:20:26.129Z,-11365.81
2023-03-25T16:23:32.589Z,-11368.91
2023-03-25T16:26:42.684Z,-11364.25
2023-03-25T16:29:52.946Z,-11363.13
2023-03-25T16:33:13.952Z,-11368.19
2023-03-25T16:36:20.901Z,-11358.34
2023-03-25T16:39:28.253Z,-11355.78
2023-03-25T16:42:35.620Z,-11358.34
2023-03-25T16:45:44.394Z,-11355.66
2023-03-25T16:48:53.879Z,-11346.78
2023-03-25T16:52:03.410Z,-11345.81
2023-03-25T16:55:28.821Z,-11343.41
2023-03-25T16:58:37.692Z,-11343.41
2023-03-25T17:01:53.144Z,-11340.03
2023-03-25T17:05:17.147Z,-11334.81
2023-03-25T17:08:23.986Z,-11334.94
2023-03-25T17:11:32.462Z,-11336.94
2023-03-25T17:14:42.082Z,-11338.75
2023-03-25T17:17:53.853Z,-11332.69
2023-03-25T17:21:01.553Z,-11322.00
2023-03-25T17:24:24.056Z,-11321.28
2023-03-25T17:27:36.249Z,-11316.09
2023-03-25T17:30:44.417Z,-11313.56
2023-03-25T17:33:53.665Z,-11317.34
2023-03-25T17:37:03.756Z,-11318.63
2023-03-25T17:40:12.685Z,-11315.53
2023-03-25T17:43:21.215Z,-11311.72
2023-03-25T17:46:29.720Z,-11294.69
2023-03-25T17:49:37.545Z,-11289.91
2023-03-25T17:52:43.884Z,-11283.69
2023-03-25T17:55:51.258Z,-11284.84
2023-03-25T17:59:01.608Z,-11285.25
2023-03-25T18:02:12.375Z,-11286.22
2023-03-25T18:05:20.111Z,-11289.06
2023-03-25T18:08:26.661Z,-11282.56
2023-03-25T18:11:32.858Z,-11285.69
2023-03-25T18:14:39.144Z,-11283.84
2023-03-25T18:17:45.610Z,-11284.84
2023-03-25T18:20:54.661Z,-11282.00
2023-03-25T18:24:00.811Z,-11286.78
2023-03-25T18:27:08.232Z,-11281.03
2023-03-25T18:30:21.358Z,-11278.34
2023-03-25T18:33:27.830Z,-11271.59
2023-03-25T18:36:35.154Z,-11274.97
2023-03-25T18:39:41.192Z,-11270.63
2023-03-25T18:42:47.985Z,-11265.13
2023-03-25T18:45:54.352Z,-11259.50
2023-03-25T18:49:02.646Z,-11250.50
2023-03-25T18:52:10.154Z,-11256.97
2023-03-25T18:55:16.241Z,-11251.63
2023-03-25T18:58:24.433Z,-11254.72
2023-03-25T19:01:30.634Z,-11254.44
2023-03-25T19:04:36.893Z,-11252.19
2023-03-25T19:07:44.454Z,-11254.72
2023-03-25T19:10:51.264Z,-11253.16
2023-03-25T19:13:57.529Z,-11251.91
2023-03-25T19:17:04.549Z,-11240.63
2023-03-25T19:20:17.649Z,-11231.22
2023-03-25T19:23:25.841Z,-11230.50
2023-03-25T19:26:31.838Z,-11228.25
2023-03-25T19:29:38.139Z,-11235.59
2023-03-25T19:32:47.216Z,-11232.91
2023-03-25T19:35:55.526Z,-11229.94
2023-03-25T19:39:05.747Z,-11224.31
2023-03-25T19:42:12.139Z,-11225.72
2023-03-25T19:45:18.872Z,-11222.63
2023-03-25T19:48:24.992Z,-11214.47
2023-03-25T19:51:31.802Z,-11207.44
2023-03-25T19:54:39.412Z,-11199.56
2023-03-25T19:57:47.589Z,-11197.19
2023-03-25T20:00:54.173Z,-11215.88
2023-03-25T20:04:00.313Z,-11213.50
2023-03-25T20:07:06.303Z,-11207.03
2023-03-25T20:10:20.194Z,-11200.00
2023-03-25T20:13:26.856Z,-11193.94
2023-03-25T20:16:35.002Z,-11206.31
2023-03-25T20:19:41.460Z,-11193.94
2023-03-25T20:22:48.351Z,-11189.03
2023-03-25T20:25:56.209Z,-11195.34
2023-03-25T20:29:02.402Z,-11200.84
2023-03-25T20:32:08.776Z,-11194.38
2023-03-25T20:35:16.496Z,-11196.06
2023-03-25T20:38:22.878Z,-11201.13
2023-03-25T20:41:30.736Z,-11195.78
2023-03-25T20:44:36.829Z,-11183.41
2023-03-25T20:47:43.385Z,-11182.56
2023-03-25T20:50:49.812Z,-11187.91
2023-03-25T20:53:57.053Z,-11192.41
2023-03-25T20:57:04.747Z,-11203.66
2023-03-25T21:00:14.357Z,-11181.84
2023-03-25T21:03:21.031Z,-11171.75
2023-03-25T21:06:28.553Z,-11190.56
2023-03-25T21:09:34.866Z,-11197.75
2023-03-25T21:12:44.715Z,-11197.03
2023-03-25T21:15:54.539Z,-11202.38
2023-03-25T21:19:02.493Z,-11192.53
2023-03-25T21:22:08.683Z,-11158.53
2023-03-25T21:25:16.919Z,-11160.22
2023-03-25T21:28:24.521Z,-11164.00
2023-03-25T21:31:30.986Z,-11162.88
2023-03-25T21:34:37.465Z,-11176.50
2023-03-25T21:37:44.337Z,-11184.38
2023-03-25T21:40:55.934Z,-11172.88
2023-03-25T21:44:03.696Z,-11171.19
2023-03-25T21:47:09.912Z,-11166.69
2023-03-25T21:50:16.625Z,-11179.19
2023-03-25T21:53:22.935Z,-11176.09
2023-03-25T21:56:31.519Z,-11163.03
2023-03-25T21:59:39.176Z,-11167.53
2023-03-25T22:02:47.229Z,-11156.00
2023-03-25T22:05:54.074Z,-11170.19
2023-03-25T22:09:05.240Z,-11165.13
2023-03-25T22:12:11.326Z,-11173.16
2023-03-25T22:15:18.759Z,-11182.13
2023-03-25T22:18:25.518Z,-11169.50
2023-03-25T22:21:34.569Z,-11173.84
2023-03-25T22:24:41.744Z,-11165.28
2023-03-25T22:27:48.130Z,-11142.22
2023-03-25T22:30:55.740Z,-11143.62
2023-03-25T22:34:03.963Z,-11156.69
2023-03-25T22:37:10.052Z,-11173.16
2023-03-25T22:40:16.369Z,-11150.94
2023-03-25T22:43:22.645Z,-11160.22
2023-03-25T22:46:32.368Z,-11143.62
2023-03-25T22:49:38.953Z,-11145.31
2023-03-25T22:52:45.093Z,-11147.84
2023-03-25T22:55:55.050Z,-11159.38
2023-03-25T22:59:02.117Z,-11159.09
2023-03-25T23:02:09.593Z,-11163.72
2023-03-25T23:05:18.583Z,-11157.25
2023-03-25T23:08:26.069Z,-11157.41
2023-03-25T23:11:32.623Z,-11151.50
2023-03-25T23:14:40.459Z,-11153.75
2023-03-25T23:17:48.101Z,-11150.38
2023-03-25T23:20:55.208Z,-11149.53
2023-03-25T23:24:04.139Z,-11129.72
2023-03-25T23:27:12.259Z,-11151.78
2023-03-25T23:30:19.550Z,-11151.50
2023-03-25T23:33:27.211Z,-11141.38
2023-03-25T23:36:36.530Z,-11148.41
2023-03-25T23:39:46.322Z,-11145.03
2023-03-25T23:42:52.585Z,-11157.53
2023-03-25T23:45:59.510Z,-11156.84
2023-03-25T23:49:07.245Z,-11156.13
2023-03-25T23:52:13.797Z,-11125.66
2023-03-25T23:55:20.684Z,-11134.06
2023-03-25T23:58:27.481Z,-11132.94
